createdAt,value
2022-10-07T00:03:41.982Z,2.72
2022-10-07T00:08:47.715Z,2.55
2022-10-07T00:13:52.994Z,2.50
2022-10-07T00:18:57.836Z,2.42
2022-10-07T00:24:02.692Z,2.75
2022-10-07T00:29:06.648Z,2.10
2022-10-07T00:34:09.416Z,2.63
2022-10-07T00:39:14.770Z,2.25
2022-10-07T00:44:42.449Z,1.80
2022-10-07T00:49:48.314Z,2.30
2022-10-07T00:54:54.380Z,2.28
2022-10-07T00:59:57.821Z,1.98
2022-10-07T01:05:01.109Z,1.83
2022-10-07T01:10:06.351Z,2.38
2022-10-07T01:15:13.785Z,2.35
2022-10-07T01:20:22.683Z,2.42
2022-10-07T01:25:33.366Z,2.30
2022-10-07T01:30:41.326Z,2.15
2022-10-07T01:35:46.820Z,2.35
2022-10-07T01:40:54.904Z,2.38
2022-10-07T01:45:59.770Z,2.50
2022-10-07T01:51:03.080Z,2.38
2022-10-07T01:56:21.265Z,2.03
2022-10-07T02:01:33.204Z,2.35
2022-10-07T02:06:42.411Z,2.40
2022-10-07T02:11:55.833Z,2.30
2022-10-07T02:17:05.042Z,2.08
2022-10-07T02:22:10.105Z,2.17
2022-10-07T02:27:14.782Z,2.10
2022-10-07T02:32:25.375Z,2.05
2022-10-07T02:37:30.902Z,2.03
2022-10-07T02:42:40.890Z,2.20
2022-10-07T02:47:49.677Z,2.25
2022-10-07T02:52:54.100Z,2.17
2022-10-07T02:57:59.025Z,1.88
2022-10-07T03:03:05.204Z,2.13
2022-10-07T03:08:24.457Z,2.33
2022-10-07T03:13:28.111Z,2.22
2022-10-07T03:18:36.653Z,3.00
2022-10-07T03:24:04.590Z,2.22
2022-10-07T03:29:12.069Z,2.33
2022-10-07T03:34:16.577Z,2.58
2022-10-07T03:39:22.575Z,2.80
2022-10-07T03:44:25.468Z,2.53
2022-10-07T03:49:31.379Z,3.08
2022-10-07T03:54:34.204Z,2.28
2022-10-07T03:59:36.896Z,2.17
2022-10-07T04:04:42.409Z,4.15
2022-10-07T04:09:45.110Z,2.70
2022-10-07T04:14:47.818Z,2.72
2022-10-07T04:19:51.857Z,2.95
2022-10-07T04:25:12.230Z,2.65
2022-10-07T04:30:15.270Z,2.88
2022-10-07T04:35:20.548Z,2.78
2022-10-07T04:40:24.272Z,2.60
2022-10-07T04:45:28.065Z,2.80
2022-10-07T04:50:33.022Z,2.88
2022-10-07T04:55:37.393Z,2.70
2022-10-07T05:00:44.793Z,2.55
2022-10-07T05:05:50.152Z,2.80
2022-10-07T05:10:57.299Z,2.60
2022-10-07T05:16:03.107Z,2.40
2022-10-07T05:21:08.500Z,2.90
2022-10-07T05:26:15.617Z,2.33
2022-10-07T05:31:22.195Z,2.30
2022-10-07T05:36:31.853Z,2.47
2022-10-07T05:41:45.295Z,2.65
2022-10-07T05:46:48.555Z,2.78
2022-10-07T05:51:53.896Z,3.20
2022-10-07T05:56:56.957Z,2.50
2022-10-07T06:02:01.027Z,2.60
2022-10-07T06:07:06.098Z,2.55
2022-10-07T06:12:28.769Z,2.17
2022-10-07T06:17:33.122Z,2.53
2022-10-07T06:22:42.886Z,2.67
2022-10-07T06:27:48.537Z,2.35
2022-10-07T06:32:56.395Z,2.28
2022-10-07T06:38:00.715Z,2.38
2022-10-07T06:43:03.689Z,3.03
2022-10-07T06:48:13.190Z,2.65
2022-10-07T06:53:17.360Z,2.30
2022-10-07T06:58:21.257Z,2.85
2022-10-07T07:03:25.069Z,2.05
2022-10-07T07:08:31.855Z,2.30
2022-10-07T07:13:38.250Z,1.85
2022-10-07T07:18:41.547Z,2.00
2022-10-07T07:23:45.950Z,1.92
2022-10-07T07:28:52.400Z,2.20
2022-10-07T07:33:56.946Z,2.15
2022-10-07T07:39:02.576Z,2.30
2022-10-07T07:44:08.739Z,1.45
2022-10-07T07:49:12.851Z,1.50
2022-10-07T07:54:18.996Z,1.85
2022-10-07T07:59:25.280Z,1.95
2022-10-07T08:04:29.566Z,2.22
2022-10-07T08:09:34.243Z,1.55
2022-10-07T08:14:37.840Z,1.83
2022-10-07T08:19:41.175Z,1.67
2022-10-07T08:24:47.192Z,2.17
2022-10-07T08:29:51.507Z,1.40
2022-10-07T08:34:54.365Z,1.70
2022-10-07T08:39:58.358Z,1.85
2022-10-07T08:45:01.558Z,1.48
2022-10-07T08:50:07.999Z,1.42
2022-10-07T08:55:18.568Z,1.52
2022-10-07T09:00:22.382Z,1.65
2022-10-07T09:05:27.789Z,1.63
2022-10-07T09:10:35.274Z,1.60
2022-10-07T09:15:41.308Z,1.70
2022-10-07T09:20:46.474Z,1.67
2022-10-07T09:25:51.687Z,1.20
2022-10-07T09:30:54.425Z,1.42
2022-10-07T09:35:58.261Z,1.10
2022-10-07T09:41:19.495Z,1.17
2022-10-07T09:46:35.678Z,1.23
2022-10-07T09:51:39.604Z,1.00
2022-10-07T09:56:45.681Z,0.80
2022-10-07T10:01:53.411Z,0.98
2022-10-07T10:06:57.271Z,1.00
2022-10-07T10:12:13.104Z,0.88
2022-10-07T10:17:24.799Z,0.95
2022-10-07T10:22:28.732Z,0.80
2022-10-07T10:27:37.137Z,0.73
2022-10-07T10:32:54.297Z,1.00
2022-10-07T10:38:29.005Z,1.08
2022-10-07T10:43:38.164Z,1.08
2022-10-07T10:48:45.024Z,0.88
2022-10-07T10:53:52.118Z,0.60
2022-10-07T10:59:04.127Z,0.90
2022-10-07T11:04:18.060Z,0.77
2022-10-07T11:09:30.531Z,0.98
2022-10-07T11:14:47.264Z,0.80
2022-10-07T11:19:56.138Z,0.90
2022-10-07T11:25:04.432Z,1.25
2022-10-07T11:30:17.488Z,0.80
2022-10-07T11:35:25.524Z,1.10
2022-10-07T11:40:31.145Z,1.05
2022-10-07T11:45:42.238Z,1.05
2022-10-07T11:50:48.262Z,0.80
2022-10-07T11:55:58.054Z,1.42
2022-10-07T12:01:53.496Z,1.20
2022-10-07T12:07:33.835Z,0.88
2022-10-07T12:12:50.525Z,1.27
2022-10-07T12:17:56.935Z,0.85
2022-10-07T12:23:40.554Z,2.22
2022-10-07T12:29:04.974Z,0.90
2022-10-07T12:34:11.414Z,0.93
2022-10-07T12:39:35.586Z,1.20
2022-10-07T12:44:42.129Z,1.00
2022-10-07T12:49:48.579Z,0.90
2022-10-07T12:54:54.644Z,1.10
2022-10-07T13:00:05.329Z,1.38
2022-10-07T13:05:48.747Z,0.93
2022-10-07T13:11:20.173Z,1.00
2022-10-07T13:16:31.694Z,0.85
2022-10-07T13:21:37.695Z,1.10
2022-10-07T13:26:44.286Z,1.23
2022-10-07T13:32:03.601Z,0.95
2022-10-07T13:37:26.430Z,1.02
2022-10-07T13:42:29.892Z,0.82
2022-10-07T13:47:35.667Z,0.82
2022-10-07T13:52:41.383Z,0.93
2022-10-07T13:57:44.338Z,0.80
2022-10-07T14:02:50.808Z,0.77
2022-10-07T14:07:55.615Z,1.02
2022-10-07T14:12:59.909Z,1.23
2022-10-07T14:18:10.487Z,1.20
2022-10-07T14:23:19.496Z,0.88
2022-10-07T14:28:29.536Z,1.00
2022-10-07T14:34:06.990Z,1.05
2022-10-07T14:39:23.737Z,1.00
2022-10-07T14:44:26.715Z,1.00
2022-10-07T14:49:30.775Z,0.77
2022-10-07T14:54:34.028Z,0.82
2022-10-07T14:59:37.807Z,0.80
2022-10-07T15:04:42.801Z,0.60
2022-10-07T15:09:46.663Z,0.95
2022-10-07T15:14:49.451Z,0.93
2022-10-07T15:19:54.012Z,1.05
2022-10-07T15:24:56.639Z,1.10
2022-10-07T15:29:59.353Z,0.90
2022-10-07T15:35:03.436Z,1.10
2022-10-07T15:40:07.634Z,1.00
2022-10-07T15:45:11.136Z,1.10
2022-10-07T15:50:16.217Z,1.20
2022-10-07T15:55:19.433Z,1.75
2022-10-07T16:00:22.074Z,1.10
2022-10-07T16:05:26.018Z,2.65
2022-10-07T16:10:28.630Z,2.92
2022-10-07T16:15:31.277Z,2.28
2022-10-07T16:20:39.393Z,2.45
2022-10-07T16:25:42.024Z,1.73
2022-10-07T16:30:49.066Z,1.70
2022-10-07T16:35:53.107Z,1.55
2022-10-07T16:40:56.086Z,1.80
2022-10-07T16:46:01.932Z,2.55
2022-10-07T16:51:09.540Z,4.10
2022-10-07T16:56:12.414Z,5.22
2022-10-07T17:01:16.825Z,5.50
2022-10-07T17:06:22.418Z,5.53
2022-10-07T17:11:31.473Z,5.47
2022-10-07T17:16:37.796Z,5.28
2022-10-07T17:21:42.369Z,6.03
2022-10-07T17:26:47.125Z,7.43
2022-10-07T17:31:51.354Z,7.43
2022-10-07T17:36:54.239Z,5.47
2022-10-07T17:41:58.450Z,5.05
2022-10-07T17:47:03.794Z,4.80
2022-10-07T17:52:06.916Z,6.50
2022-10-07T17:57:11.040Z,6.97
2022-10-07T18:02:13.897Z,5.82
2022-10-07T18:07:17.399Z,11.57
2022-10-07T18:12:38.743Z,4.45
2022-10-07T18:17:41.410Z,3.58
2022-10-07T18:22:44.691Z,3.28
2022-10-07T18:27:49.007Z,3.67
2022-10-07T18:32:51.759Z,3.20
2022-10-07T18:37:54.579Z,3.42
2022-10-07T18:42:58.613Z,3.47
2022-10-07T18:48:01.234Z,2.83
2022-10-07T18:53:04.176Z,2.78
2022-10-07T18:58:08.157Z,2.78
2022-10-07T19:03:10.906Z,3.20
2022-10-07T19:08:13.513Z,2.65
2022-10-07T19:13:35.094Z,2.70
2022-10-07T19:18:38.368Z,2.70
2022-10-07T19:23:41.486Z,2.92
2022-10-07T19:28:46.754Z,2.75
2022-10-07T19:33:50.478Z,3.03
2022-10-07T19:38:53.429Z,2.58
2022-10-07T19:43:58.024Z,2.88
2022-10-07T19:49:01.872Z,3.35
2022-10-07T19:54:09.833Z,3.40
2022-10-07T19:59:14.837Z,3.25
2022-10-07T20:04:20.807Z,3.45
2022-10-07T20:09:24.048Z,3.85
2022-10-07T20:14:28.212Z,3.90
2022-10-07T20:19:30.826Z,4.00
2022-10-07T20:24:37.332Z,4.70
2022-10-07T20:29:55.664Z,4.53
2022-10-07T20:34:58.814Z,4.43
2022-10-07T20:40:21.067Z,4.03
2022-10-07T20:45:25.079Z,3.80
2022-10-07T20:50:27.685Z,3.85
2022-10-07T20:55:34.123Z,3.92
2022-10-07T21:00:40.249Z,3.88
2022-10-07T21:05:43.047Z,3.65
2022-10-07T21:10:45.682Z,3.50
2022-10-07T21:15:49.598Z,3.63
2022-10-07T21:20:56.476Z,3.75
2022-10-07T21:26:01.567Z,3.75
2022-10-07T21:31:08.549Z,3.65
2022-10-07T21:36:16.434Z,3.33
2022-10-07T21:41:20.579Z,3.15
2022-10-07T21:46:25.875Z,3.05
2022-10-07T21:51:29.528Z,3.20
2022-10-07T21:56:33.510Z,3.70
2022-10-07T22:01:38.093Z,2.95
2022-10-07T22:06:58.158Z,3.70
2022-10-07T22:12:00.815Z,3.42
2022-10-07T22:17:05.016Z,3.33
2022-10-07T22:22:08.106Z,3.00
2022-10-07T22:27:10.759Z,2.92
2022-10-07T22:32:14.723Z,2.88
2022-10-07T22:37:17.448Z,2.97
2022-10-07T22:42:20.037Z,3.00
2022-10-07T22:47:24.822Z,3.90
2022-10-07T22:52:27.826Z,3.30
2022-10-07T22:57:30.815Z,3.20
2022-10-07T23:02:35.062Z,3.13
2022-10-07T23:07:38.316Z,3.67
2022-10-07T23:12:40.935Z,3.80
2022-10-07T23:17:44.900Z,3.67
2022-10-07T23:22:47.846Z,3.47
2022-10-07T23:27:50.535Z,3.83
2022-10-07T23:32:55.330Z,3.40
2022-10-07T23:37:58.664Z,3.60
2022-10-07T23:43:01.472Z,3.90
2022-10-07T23:48:05.531Z,3.63
2022-10-07T23:53:08.439Z,3.85
2022-10-07T23:58:11.009Z,4.13
